This is the latest recevied weather packets stored in our database for station/object KF5WCW-1. If no packets are shown the sender has not sent any weather packets the latest 10 day(s).
| Time | Temp. | Humidity | Pressure | Rain* | Wind** | Luminosity | Snow |
|---|---|---|---|---|---|---|---|
| 1778008569 | 12.78° C | 46% | 0 hPa | 0 mm | - | - | - |
| 1778008269 | 12.78° C | 44% | 0 hPa | 0 mm | - | - | - |
| 1778007969 | 12.78° C | 47% | 0 hPa | 0 mm | - | - | - |
| 1778007669 | 11.67° C | 49% | 0 hPa | 0 mm | - | - | - |
| 1778007369 | 11.67° C | 48% | 0 hPa | 0 mm | - | - | - |
| 1778007069 | 12.22° C | 45% | 0 hPa | 0 mm | - | - | - |
| 1778006769 | 12.22° C | 44% | 0 hPa | 0 mm | - | - | - |
| 1778006469 | 12.78° C | 43% | 0 hPa | 0 mm | - | - | - |
| 1778006169 | 13.33° C | 43% | 0 hPa | 0 mm | - | - | - |
| 1778005869 | 13.33° C | 43% | 0 hPa | 0 mm | - | - | - |
| 1778005569 | 12.78° C | 44% | 0 hPa | 0 mm | - | - | - |
| 1778005269 | 12.78° C | 43% | 0 hPa | 0 mm | - | - | - |
| 1778004969 | 12.78° C | 46% | 0 hPa | 0 mm | - | - | - |
| 1778004669 | 12.78° C | 46% | 0 hPa | 0 mm | - | - | - |
| 1778004369 | 12.22° C | 47% | 0 hPa | 0 mm | - | - | - |
| 1778004069 | 11.67° C | 49% | 0 hPa | 0 mm | - | - | - |
| 1778003769 | 11.67° C | 49% | 0 hPa | 0 mm | - | - | - |
| 1778003469 | 11.67° C | 48% | 0 hPa | 0 mm | - | - | - |
| 1778003169 | 11.67° C | 48% | 0 hPa | 0 mm | - | - | - |
| 1778002870 | 11.67° C | 48% | 0 hPa | 0 mm | - | - | - |
| 1778002569 | 12.22° C | 45% | 0 hPa | 0 mm | - | - | - |
| 1778002269 | 12.22° C | 46% | 0 hPa | 0 mm | - | - | - |
| 1778001969 | 12.22° C | 44% | 0 hPa | 0 mm | - | - | - |
| 1778001669 | 12.22° C | 44% | 0 hPa | 0 mm | - | - | - |
| 1778001369 | 12.78° C | 44% | 0 hPa | 0 mm | - | - | - |
* Rain latest hour (hover to see other rain measurements)
** Current wind speed in m/s (hover to see current wind gust speed)